sensor_id;sensor_type;location;lat;lon;timestamp;P1;durP1;ratioP1;P2;durP2;ratioP2
41221;SDS011;26952;42.884;23.918;2022-11-21T00:00:17;24.83;;;23.58;;
41221;SDS011;26952;42.884;23.918;2022-11-21T00:02:42;29.40;;;27.90;;
41221;SDS011;26952;42.884;23.918;2022-11-21T00:05:08;48.72;;;46.30;;
41221;SDS011;26952;42.884;23.918;2022-11-21T00:07:34;51.15;;;48.60;;
41221;SDS011;26952;42.884;23.918;2022-11-21T00:09:59;48.55;;;46.20;;
41221;SDS011;26952;42.884;23.918;2022-11-21T00:12:25;42.10;;;39.70;;
41221;SDS011;26952;42.884;23.918;2022-11-21T00:14:50;54.72;;;51.95;;
41221;SDS011;26952;42.884;23.918;2022-11-21T00:17:16;59.28;;;56.25;;
41221;SDS011;26952;42.884;23.918;2022-11-21T00:19:41;63.58;;;59.95;;
41221;SDS011;26952;42.884;23.918;2022-11-21T00:22:06;65.38;;;62.13;;
41221;SDS011;26952;42.884;23.918;2022-11-21T00:24:32;64.18;;;60.80;;
41221;SDS011;26952;42.884;23.918;2022-11-21T00:26:57;51.30;;;48.45;;
41221;SDS011;26952;42.884;23.918;2022-11-21T00:29:23;54.65;;;51.53;;
41221;SDS011;26952;42.884;23.918;2022-11-21T00:31:48;58.95;;;56.10;;
41221;SDS011;26952;42.884;23.918;2022-11-21T00:34:14;64.65;;;61.05;;
41221;SDS011;26952;42.884;23.918;2022-11-21T00:36:40;58.33;;;55.22;;
41221;SDS011;26952;42.884;23.918;2022-11-21T00:39:06;45.97;;;43.53;;
41221;SDS011;26952;42.884;23.918;2022-11-21T00:41:31;35.47;;;33.47;;
41221;SDS011;26952;42.884;23.918;2022-11-21T00:43:57;34.92;;;32.70;;
41221;SDS011;26952;42.884;23.918;2022-11-21T00:46:22;34.42;;;32.65;;
41221;SDS011;26952;42.884;23.918;2022-11-21T00:48:47;38.08;;;36.08;;
41221;SDS011;26952;42.884;23.918;2022-11-21T00:51:13;39.88;;;37.95;;
41221;SDS011;26952;42.884;23.918;2022-11-21T00:53:38;37.70;;;35.28;;
41221;SDS011;26952;42.884;23.918;2022-11-21T00:56:04;29.08;;;27.67;;
41221;SDS011;26952;42.884;23.918;2022-11-21T00:58:29;24.65;;;23.48;;
41221;SDS011;26952;42.884;23.918;2022-11-21T01:01:02;22.27;;;21.25;;
41221;SDS011;26952;42.884;23.918;2022-11-21T01:03:30;21.45;;;20.45;;
41221;SDS011;26952;42.884;23.918;2022-11-21T01:06:01;22.90;;;21.25;;
41221;SDS011;26952;42.884;23.918;2022-11-21T01:08:28;23.52;;;22.40;;
41221;SDS011;26952;42.884;23.918;2022-11-21T01:10:53;24.58;;;23.17;;
41221;SDS011;26952;42.884;23.918;2022-11-21T01:13:19;25.10;;;23.90;;
41221;SDS011;26952;42.884;23.918;2022-11-21T01:15:44;27.45;;;25.98;;
41221;SDS011;26952;42.884;23.918;2022-11-21T01:18:09;34.78;;;32.17;;
41221;SDS011;26952;42.884;23.918;2022-11-21T01:20:37;34.83;;;33.10;;
41221;SDS011;26952;42.884;23.918;2022-11-21T01:23:04;29.38;;;27.50;;
41221;SDS011;26952;42.884;23.918;2022-11-21T01:25:32;30.63;;;29.23;;
41221;SDS011;26952;42.884;23.918;2022-11-21T01:27:58;25.77;;;24.58;;
41221;SDS011;26952;42.884;23.918;2022-11-21T01:30:23;16.42;;;15.60;;
41221;SDS011;26952;42.884;23.918;2022-11-21T01:32:49;17.27;;;16.48;;
41221;SDS011;26952;42.884;23.918;2022-11-21T01:35:14;15.73;;;14.93;;
41221;SDS011;26952;42.884;23.918;2022-11-21T01:37:40;16.27;;;15.57;;
41221;SDS011;26952;42.884;23.918;2022-11-21T01:40:05;23.33;;;22.23;;
41221;SDS011;26952;42.884;23.918;2022-11-21T01:48:27;22.70;;;21.38;;
41221;SDS011;26952;42.884;23.918;2022-11-21T01:50:53;12.88;;;12.27;;
41221;SDS011;26952;42.884;23.918;2022-11-21T01:53:23;21.70;;;20.70;;
41221;SDS011;26952;42.884;23.918;2022-11-21T01:55:49;22.08;;;21.08;;
41221;SDS011;26952;42.884;23.918;2022-11-21T01:58:15;19.45;;;18.60;;
41221;SDS011;26952;42.884;23.918;2022-11-21T02:00:41;23.27;;;22.05;;
41221;SDS011;26952;42.884;23.918;2022-11-21T02:03:11;17.98;;;17.17;;
41221;SDS011;26952;42.884;23.918;2022-11-21T02:05:41;20.33;;;19.23;;
41221;SDS011;26952;42.884;23.918;2022-11-21T02:08:08;28.33;;;26.95;;
41221;SDS011;26952;42.884;23.918;2022-11-21T02:10:38;27.58;;;26.27;;
41221;SDS011;26952;42.884;23.918;2022-11-21T02:13:10;38.55;;;36.72;;
41221;SDS011;26952;42.884;23.918;2022-11-21T02:15:36;34.97;;;33.33;;
41221;SDS011;26952;42.884;23.918;2022-11-21T02:18:02;37.65;;;35.90;;
41221;SDS011;26952;42.884;23.918;2022-11-21T02:20:29;40.78;;;38.78;;
41221;SDS011;26952;42.884;23.918;2022-11-21T02:25:24;42.65;;;40.42;;
41221;SDS011;26952;42.884;23.918;2022-11-21T02:27:57;44.00;;;41.95;;
41221;SDS011;26952;42.884;23.918;2022-11-21T02:30:24;42.80;;;40.63;;
41221;SDS011;26952;42.884;23.918;2022-11-21T02:32:52;34.30;;;32.75;;
41221;SDS011;26952;42.884;23.918;2022-11-21T02:35:18;25.80;;;24.60;;
41221;SDS011;26952;42.884;23.918;2022-11-21T02:37:44;26.48;;;25.17;;
41221;SDS011;26952;42.884;23.918;2022-11-21T02:40:14;40.33;;;38.20;;
41221;SDS011;26952;42.884;23.918;2022-11-21T02:42:46;32.95;;;31.17;;
41221;SDS011;26952;42.884;23.918;2022-11-21T02:45:29;25.17;;;23.90;;
41221;SDS011;26952;42.884;23.918;2022-11-21T02:47:57;23.77;;;22.55;;
41221;SDS011;26952;42.884;23.918;2022-11-21T02:50:24;29.98;;;28.52;;
41221;SDS011;26952;42.884;23.918;2022-11-21T02:52:52;20.80;;;19.70;;
41221;SDS011;26952;42.884;23.918;2022-11-21T02:55:19;16.98;;;16.17;;
41221;SDS011;26952;42.884;23.918;2022-11-21T02:57:45;15.98;;;15.10;;
41221;SDS011;26952;42.884;23.918;2022-11-21T03:00:10;15.48;;;14.35;;
41221;SDS011;26952;42.884;23.918;2022-11-21T03:02:36;14.02;;;13.30;;
41221;SDS011;26952;42.884;23.918;2022-11-21T03:05:02;15.80;;;15.00;;
41221;SDS011;26952;42.884;23.918;2022-11-21T03:07:29;17.08;;;16.27;;
41221;SDS011;26952;42.884;23.918;2022-11-21T03:09:54;19.75;;;18.73;;
41221;SDS011;26952;42.884;23.918;2022-11-21T03:12:20;25.13;;;23.83;;
41221;SDS011;26952;42.884;23.918;2022-11-21T03:14:45;24.70;;;23.55;;
41221;SDS011;26952;42.884;23.918;2022-11-21T03:17:11;20.70;;;19.77;;
41221;SDS011;26952;42.884;23.918;2022-11-21T03:19:36;20.85;;;19.75;;
41221;SDS011;26952;42.884;23.918;2022-11-21T03:22:02;12.13;;;11.35;;
41221;SDS011;26952;42.884;23.918;2022-11-21T03:24:27;9.70;;;8.88;;
41221;SDS011;26952;42.884;23.918;2022-11-21T03:26:53;10.15;;;9.65;;
41221;SDS011;26952;42.884;23.918;2022-11-21T03:29:18;12.40;;;11.57;;
41221;SDS011;26952;42.884;23.918;2022-11-21T03:31:43;13.55;;;12.65;;
41221;SDS011;26952;42.884;23.918;2022-11-21T03:34:09;13.02;;;12.32;;
41221;SDS011;26952;42.884;23.918;2022-11-21T03:36:34;11.40;;;10.80;;
41221;SDS011;26952;42.884;23.918;2022-11-21T03:39:00;13.35;;;12.45;;
41221;SDS011;26952;42.884;23.918;2022-11-21T03:41:25;15.88;;;14.90;;
41221;SDS011;26952;42.884;23.918;2022-11-21T03:43:57;16.60;;;15.30;;
41221;SDS011;26952;42.884;23.918;2022-11-21T03:46:25;17.17;;;16.08;;
41221;SDS011;26952;42.884;23.918;2022-11-21T03:48:51;14.10;;;13.30;;
41221;SDS011;26952;42.884;23.918;2022-11-21T03:51:17;19.80;;;18.65;;
41221;SDS011;26952;42.884;23.918;2022-11-21T03:53:42;22.13;;;21.08;;
41221;SDS011;26952;42.884;23.918;2022-11-21T03:56:08;24.50;;;23.23;;
41221;SDS011;26952;42.884;23.918;2022-11-21T03:58:33;24.02;;;22.63;;
41221;SDS011;26952;42.884;23.918;2022-11-21T04:00:59;23.30;;;22.08;;
41221;SDS011;26952;42.884;23.918;2022-11-21T04:03:24;20.00;;;18.80;;
41221;SDS011;26952;42.884;23.918;2022-11-21T04:05:50;14.90;;;14.10;;
41221;SDS011;26952;42.884;23.918;2022-11-21T04:08:15;8.80;;;8.20;;
41221;SDS011;26952;42.884;23.918;2022-11-21T04:10:47;6.32;;;5.85;;
41221;SDS011;26952;42.884;23.918;2022-11-21T04:13:17;5.85;;;5.25;;
41221;SDS011;26952;42.884;23.918;2022-11-21T04:15:43;6.22;;;5.78;;
41221;SDS011;26952;42.884;23.918;2022-11-21T04:18:09;7.72;;;6.55;;
41221;SDS011;26952;42.884;23.918;2022-11-21T04:20:34;7.35;;;6.75;;
41221;SDS011;26952;42.884;23.918;2022-11-21T04:23:00;7.55;;;6.85;;
41221;SDS011;26952;42.884;23.918;2022-11-21T04:25:25;9.98;;;9.23;;
41221;SDS011;26952;42.884;23.918;2022-11-21T04:27:54;10.82;;;10.18;;
41221;SDS011;26952;42.884;23.918;2022-11-21T04:30:20;12.27;;;11.57;;
41221;SDS011;26952;42.884;23.918;2022-11-21T04:32:46;15.57;;;14.65;;
41221;SDS011;26952;42.884;23.918;2022-11-21T04:35:13;16.15;;;15.07;;
41221;SDS011;26952;42.884;23.918;2022-11-21T04:37:39;14.20;;;13.32;;
41221;SDS011;26952;42.884;23.918;2022-11-21T04:40:04;15.43;;;14.68;;
41221;SDS011;26952;42.884;23.918;2022-11-21T04:42:30;16.50;;;15.60;;
41221;SDS011;26952;42.884;23.918;2022-11-21T04:44:55;15.70;;;14.48;;
41221;SDS011;26952;42.884;23.918;2022-11-21T04:47:21;13.80;;;12.45;;
41221;SDS011;26952;42.884;23.918;2022-11-21T04:49:46;10.10;;;9.35;;
41221;SDS011;26952;42.884;23.918;2022-11-21T04:52:11;7.45;;;7.05;;
41221;SDS011;26952;42.884;23.918;2022-11-21T04:54:37;7.72;;;7.05;;
41221;SDS011;26952;42.884;23.918;2022-11-21T04:57:02;6.82;;;6.32;;
41221;SDS011;26952;42.884;23.918;2022-11-21T04:59:27;7.65;;;6.40;;
41221;SDS011;26952;42.884;23.918;2022-11-21T05:01:53;6.97;;;6.45;;
41221;SDS011;26952;42.884;23.918;2022-11-21T05:04:18;8.05;;;7.45;;
41221;SDS011;26952;42.884;23.918;2022-11-21T05:06:44;12.30;;;11.25;;
41221;SDS011;26952;42.884;23.918;2022-11-21T05:09:09;9.70;;;9.00;;
41221;SDS011;26952;42.884;23.918;2022-11-21T05:11:35;11.65;;;10.75;;
41221;SDS011;26952;42.884;23.918;2022-11-21T05:14:19;12.50;;;11.70;;
41221;SDS011;26952;42.884;23.918;2022-11-21T05:16:44;15.75;;;14.63;;
41221;SDS011;26952;42.884;23.918;2022-11-21T05:19:09;17.85;;;16.65;;
41221;SDS011;26952;42.884;23.918;2022-11-21T05:21:35;18.10;;;17.05;;
41221;SDS011;26952;42.884;23.918;2022-11-21T05:24:01;16.17;;;15.40;;
41221;SDS011;26952;42.884;23.918;2022-11-21T05:26:26;15.43;;;14.63;;
41221;SDS011;26952;42.884;23.918;2022-11-21T05:28:51;14.30;;;13.43;;
41221;SDS011;26952;42.884;23.918;2022-11-21T05:31:17;13.55;;;12.45;;
41221;SDS011;26952;42.884;23.918;2022-11-21T05:33:42;17.55;;;15.93;;
41221;SDS011;26952;42.884;23.918;2022-11-21T05:36:07;19.73;;;16.65;;
41221;SDS011;26952;42.884;23.918;2022-11-21T05:38:33;15.18;;;14.02;;
41221;SDS011;26952;42.884;23.918;2022-11-21T05:40:58;17.77;;;16.35;;
41221;SDS011;26952;42.884;23.918;2022-11-21T05:43:24;27.23;;;24.55;;
41221;SDS011;26952;42.884;23.918;2022-11-21T05:46:08;14.43;;;13.50;;
41221;SDS011;26952;42.884;23.918;2022-11-21T05:48:33;15.40;;;14.35;;
41221;SDS011;26952;42.884;23.918;2022-11-21T05:51:00;8.68;;;8.20;;
41221;SDS011;26952;42.884;23.918;2022-11-21T05:53:26;8.00;;;7.53;;
41221;SDS011;26952;42.884;23.918;2022-11-21T05:55:52;7.57;;;7.15;;
41221;SDS011;26952;42.884;23.918;2022-11-21T05:58:17;6.57;;;6.07;;
41221;SDS011;26952;42.884;23.918;2022-11-21T06:00:43;6.78;;;6.47;;
41221;SDS011;26952;42.884;23.918;2022-11-21T06:03:08;11.02;;;9.82;;
41221;SDS011;26952;42.884;23.918;2022-11-21T06:08:31;16.45;;;15.65;;
41221;SDS011;26952;42.884;23.918;2022-11-21T06:11:01;17.58;;;16.67;;
41221;SDS011;26952;42.884;23.918;2022-11-21T06:13:28;15.85;;;15.05;;
41221;SDS011;26952;42.884;23.918;2022-11-21T06:16:00;15.05;;;14.35;;
41221;SDS011;26952;42.884;23.918;2022-11-21T06:18:34;15.40;;;14.60;;
41221;SDS011;26952;42.884;23.918;2022-11-21T06:23:27;12.07;;;11.38;;
41221;SDS011;26952;42.884;23.918;2022-11-21T06:25:57;10.95;;;10.43;;
41221;SDS011;26952;42.884;23.918;2022-11-21T06:28:24;11.25;;;10.73;;
41221;SDS011;26952;42.884;23.918;2022-11-21T06:30:50;11.55;;;10.90;;
41221;SDS011;26952;42.884;23.918;2022-11-21T06:33:16;10.98;;;10.30;;
41221;SDS011;26952;42.884;23.918;2022-11-21T06:35:42;10.50;;;9.88;;
41221;SDS011;26952;42.884;23.918;2022-11-21T06:38:07;9.32;;;8.93;;
41221;SDS011;26952;42.884;23.918;2022-11-21T06:40:33;8.60;;;8.23;;
41221;SDS011;26952;42.884;23.918;2022-11-21T06:42:58;8.43;;;8.02;;
41221;SDS011;26952;42.884;23.918;2022-11-21T06:45:24;8.15;;;7.65;;
41221;SDS011;26952;42.884;23.918;2022-11-21T06:47:49;8.82;;;8.43;;
41221;SDS011;26952;42.884;23.918;2022-11-21T06:50:15;8.20;;;7.60;;
41221;SDS011;26952;42.884;23.918;2022-11-21T06:52:40;8.07;;;7.75;;
41221;SDS011;26952;42.884;23.918;2022-11-21T06:55:06;8.55;;;8.15;;
41221;SDS011;26952;42.884;23.918;2022-11-21T06:57:33;10.02;;;9.50;;
41221;SDS011;26952;42.884;23.918;2022-11-21T06:59:59;10.18;;;9.70;;
41221;SDS011;26952;42.884;23.918;2022-11-21T07:02:24;11.88;;;11.27;;
41221;SDS011;26952;42.884;23.918;2022-11-21T07:04:49;12.30;;;11.70;;
41221;SDS011;26952;42.884;23.918;2022-11-21T07:07:15;14.27;;;13.63;;
41221;SDS011;26952;42.884;23.918;2022-11-21T07:09:40;12.98;;;12.38;;
41221;SDS011;26952;42.884;23.918;2022-11-21T07:12:08;11.07;;;10.57;;
41221;SDS011;26952;42.884;23.918;2022-11-21T07:14:53;12.10;;;11.60;;
41221;SDS011;26952;42.884;23.918;2022-11-21T07:17:19;12.25;;;11.75;;
41221;SDS011;26952;42.884;23.918;2022-11-21T07:19:44;14.45;;;13.75;;
41221;SDS011;26952;42.884;23.918;2022-11-21T07:22:09;15.85;;;15.02;;
41221;SDS011;26952;42.884;23.918;2022-11-21T07:24:35;14.52;;;13.85;;
41221;SDS011;26952;42.884;23.918;2022-11-21T07:27:00;15.43;;;14.73;;
41221;SDS011;26952;42.884;23.918;2022-11-21T07:29:26;14.23;;;13.52;;
41221;SDS011;26952;42.884;23.918;2022-11-21T07:31:52;14.35;;;13.73;;
41221;SDS011;26952;42.884;23.918;2022-11-21T07:34:18;14.07;;;13.48;;
41221;SDS011;26952;42.884;23.918;2022-11-21T07:36:44;14.27;;;13.38;;
41221;SDS011;26952;42.884;23.918;2022-11-21T07:39:09;13.68;;;13.07;;
41221;SDS011;26952;42.884;23.918;2022-11-21T07:41:34;13.25;;;12.65;;
41221;SDS011;26952;42.884;23.918;2022-11-21T07:44:00;15.45;;;14.75;;
41221;SDS011;26952;42.884;23.918;2022-11-21T07:46:25;14.10;;;13.40;;
41221;SDS011;26952;42.884;23.918;2022-11-21T07:48:51;9.52;;;8.93;;
41221;SDS011;26952;42.884;23.918;2022-11-21T07:51:16;10.45;;;9.88;;
41221;SDS011;26952;42.884;23.918;2022-11-21T07:53:42;11.30;;;10.77;;
41221;SDS011;26952;42.884;23.918;2022-11-21T07:56:07;12.23;;;11.73;;
41221;SDS011;26952;42.884;23.918;2022-11-21T07:58:36;12.88;;;12.27;;
41221;SDS011;26952;42.884;23.918;2022-11-21T08:01:04;11.93;;;11.32;;
41221;SDS011;26952;42.884;23.918;2022-11-21T08:03:31;15.63;;;14.90;;
41221;SDS011;26952;42.884;23.918;2022-11-21T08:05:59;14.43;;;13.73;;
41221;SDS011;26952;42.884;23.918;2022-11-21T08:08:26;9.20;;;8.80;;
41221;SDS011;26952;42.884;23.918;2022-11-21T08:10:51;6.68;;;6.38;;
41221;SDS011;26952;42.884;23.918;2022-11-21T08:13:17;7.70;;;7.10;;
41221;SDS011;26952;42.884;23.918;2022-11-21T08:15:42;8.50;;;8.00;;
41221;SDS011;26952;42.884;23.918;2022-11-21T08:18:08;8.88;;;8.38;;
41221;SDS011;26952;42.884;23.918;2022-11-21T08:20:35;8.05;;;7.65;;
41221;SDS011;26952;42.884;23.918;2022-11-21T08:23:01;10.27;;;9.68;;
41221;SDS011;26952;42.884;23.918;2022-11-21T08:25:26;11.15;;;10.45;;
41221;SDS011;26952;42.884;23.918;2022-11-21T08:27:55;10.25;;;9.75;;
41221;SDS011;26952;42.884;23.918;2022-11-21T08:30:21;6.97;;;6.68;;
41221;SDS011;26952;42.884;23.918;2022-11-21T08:32:46;6.90;;;6.60;;
41221;SDS011;26952;42.884;23.918;2022-11-21T08:35:12;6.35;;;6.05;;
41221;SDS011;26952;42.884;23.918;2022-11-21T08:37:37;5.13;;;4.72;;
41221;SDS011;26952;42.884;23.918;2022-11-21T08:40:03;4.40;;;4.20;;
41221;SDS011;26952;42.884;23.918;2022-11-21T08:42:28;5.63;;;5.43;;
41221;SDS011;26952;42.884;23.918;2022-11-21T08:44:54;7.20;;;6.90;;
41221;SDS011;26952;42.884;23.918;2022-11-21T08:47:19;7.43;;;7.13;;
41221;SDS011;26952;42.884;23.918;2022-11-21T08:49:45;7.38;;;7.07;;
41221;SDS011;26952;42.884;23.918;2022-11-21T08:52:11;7.53;;;7.22;;
41221;SDS011;26952;42.884;23.918;2022-11-21T08:54:37;6.95;;;6.65;;
41221;SDS011;26952;42.884;23.918;2022-11-21T08:57:02;8.57;;;8.18;;
41221;SDS011;26952;42.884;23.918;2022-11-21T08:59:28;8.63;;;8.00;;
41221;SDS011;26952;42.884;23.918;2022-11-21T09:01:53;8.13;;;7.80;;
41221;SDS011;26952;42.884;23.918;2022-11-21T09:04:18;11.88;;;10.98;;
41221;SDS011;26952;42.884;23.918;2022-11-21T09:06:44;6.53;;;6.22;;
41221;SDS011;26952;42.884;23.918;2022-11-21T09:09:09;7.78;;;7.45;;
41221;SDS011;26952;42.884;23.918;2022-11-21T09:11:35;7.38;;;6.97;;
41221;SDS011;26952;42.884;23.918;2022-11-21T09:14:02;7.05;;;6.75;;
41221;SDS011;26952;42.884;23.918;2022-11-21T09:16:47;8.35;;;8.02;;
41221;SDS011;26952;42.884;23.918;2022-11-21T09:19:31;7.82;;;7.53;;
41221;SDS011;26952;42.884;23.918;2022-11-21T09:21:57;8.88;;;8.43;;
41221;SDS011;26952;42.884;23.918;2022-11-21T09:24:23;10.15;;;9.55;;
41221;SDS011;26952;42.884;23.918;2022-11-21T09:26:49;10.82;;;10.15;;
41221;SDS011;26952;42.884;23.918;2022-11-21T09:29:15;13.05;;;12.15;;
41221;SDS011;26952;42.884;23.918;2022-11-21T09:31:42;11.82;;;11.23;;
41221;SDS011;26952;42.884;23.918;2022-11-21T09:34:09;10.63;;;10.07;;
41221;SDS011;26952;42.884;23.918;2022-11-21T09:36:35;13.10;;;12.30;;
41221;SDS011;26952;42.884;23.918;2022-11-21T09:39:01;17.15;;;16.25;;
41221;SDS011;26952;42.884;23.918;2022-11-21T09:47:24;42.25;;;40.22;;
41221;SDS011;26952;42.884;23.918;2022-11-21T09:50:01;34.10;;;32.50;;
41221;SDS011;26952;42.884;23.918;2022-11-21T09:53:16;38.97;;;37.08;;
41221;SDS011;26952;42.884;23.918;2022-11-21T09:58:03;33.40;;;31.85;;
41221;SDS011;26952;42.884;23.918;2022-11-21T10:00:34;37.63;;;35.92;;
41221;SDS011;26952;42.884;23.918;2022-11-21T10:03:01;34.03;;;32.42;;
41221;SDS011;26952;42.884;23.918;2022-11-21T10:06:15;30.10;;;28.63;;
41221;SDS011;26952;42.884;23.918;2022-11-21T10:11:14;22.45;;;21.45;;
41221;SDS011;26952;42.884;23.918;2022-11-21T10:14:30;22.23;;;21.20;;
41221;SDS011;26952;42.884;23.918;2022-11-21T10:25:12;18.95;;;18.05;;
41221;SDS011;26952;42.884;23.918;2022-11-21T10:27:52;15.98;;;15.23;;
41221;SDS011;26952;42.884;23.918;2022-11-21T10:30:22;16.48;;;15.52;;
41221;SDS011;26952;42.884;23.918;2022-11-21T10:32:56;16.08;;;15.32;;
41221;SDS011;26952;42.884;23.918;2022-11-21T10:35:43;26.65;;;25.40;;
41221;SDS011;26952;42.884;23.918;2022-11-21T10:38:22;30.55;;;29.13;;
41221;SDS011;26952;42.884;23.918;2022-11-21T10:41:13;38.33;;;36.58;;
41221;SDS011;26952;42.884;23.918;2022-11-21T10:47:11;9.88;;;9.38;;
41221;SDS011;26952;42.884;23.918;2022-11-21T10:49:39;16.55;;;15.68;;
41221;SDS011;26952;42.884;23.918;2022-11-21T10:52:15;22.20;;;21.20;;
41221;SDS011;26952;42.884;23.918;2022-11-21T10:57:30;18.33;;;17.48;;
41221;SDS011;26952;42.884;23.918;2022-11-21T11:02:41;17.10;;;16.15;;
41221;SDS011;26952;42.884;23.918;2022-11-21T11:05:35;15.88;;;15.18;;
41221;SDS011;26952;42.884;23.918;2022-11-21T11:10:32;11.48;;;10.88;;
41221;SDS011;26952;42.884;23.918;2022-11-21T11:13:16;16.98;;;16.25;;
41221;SDS011;26952;42.884;23.918;2022-11-21T11:16:05;19.67;;;18.67;;
41221;SDS011;26952;42.884;23.918;2022-11-21T11:18:32;20.58;;;19.67;;
41221;SDS011;26952;42.884;23.918;2022-11-21T11:21:18;21.60;;;20.65;;
41221;SDS011;26952;42.884;23.918;2022-11-21T11:23:47;23.88;;;22.67;;
41221;SDS011;26952;42.884;23.918;2022-11-21T11:26:21;18.48;;;17.63;;
41221;SDS011;26952;42.884;23.918;2022-11-21T11:28:52;10.57;;;10.07;;
41221;SDS011;26952;42.884;23.918;2022-11-21T11:31:23;14.75;;;14.07;;
41221;SDS011;26952;42.884;23.918;2022-11-21T11:33:50;17.98;;;17.20;;
41221;SDS011;26952;42.884;23.918;2022-11-21T11:50:50;19.50;;;18.60;;
41221;SDS011;26952;42.884;23.918;2022-11-21T11:55:50;23.13;;;22.08;;
41221;SDS011;26952;42.884;23.918;2022-11-21T11:58:22;20.92;;;20.00;;
41221;SDS011;26952;42.884;23.918;2022-11-21T12:01:58;16.98;;;15.98;;
41221;SDS011;26952;42.884;23.918;2022-11-21T12:04:23;17.42;;;16.55;;
41221;SDS011;26952;42.884;23.918;2022-11-21T12:10:05;22.10;;;21.10;;
41221;SDS011;26952;42.884;23.918;2022-11-21T12:12:37;20.60;;;19.70;;
41221;SDS011;26952;42.884;23.918;2022-11-21T12:23:23;23.80;;;22.70;;
41221;SDS011;26952;42.884;23.918;2022-11-21T12:37:40;15.80;;;15.00;;
41221;SDS011;26952;42.884;23.918;2022-11-21T12:46:05;17.65;;;16.75;;
41221;SDS011;26952;42.884;23.918;2022-11-21T12:58:17;20.38;;;19.42;;
41221;SDS011;26952;42.884;23.918;2022-11-21T13:05:51;7.07;;;6.75;;
41221;SDS011;26952;42.884;23.918;2022-11-21T13:08:24;11.60;;;11.07;;
41221;SDS011;26952;42.884;23.918;2022-11-21T13:19:22;10.43;;;9.88;;
41221;SDS011;26952;42.884;23.918;2022-11-21T13:21:56;11.43;;;10.93;;
41221;SDS011;26952;42.884;23.918;2022-11-21T13:27:28;10.25;;;9.85;;
41221;SDS011;26952;42.884;23.918;2022-11-21T13:30:22;11.65;;;11.15;;
41221;SDS011;26952;42.884;23.918;2022-11-21T13:32:50;9.20;;;8.80;;
41221;SDS011;26952;42.884;23.918;2022-11-21T13:37:59;5.95;;;5.65;;
41221;SDS011;26952;42.884;23.918;2022-11-21T13:40:37;7.22;;;6.82;;
41221;SDS011;26952;42.884;23.918;2022-11-21T13:43:25;8.85;;;8.25;;
41221;SDS011;26952;42.884;23.918;2022-11-21T13:45:52;6.47;;;6.18;;
41221;SDS011;26952;42.884;23.918;2022-11-21T13:51:11;7.65;;;7.32;;
41221;SDS011;26952;42.884;23.918;2022-11-21T14:02:27;4.88;;;4.68;;
41221;SDS011;26952;42.884;23.918;2022-11-21T14:08:36;9.65;;;9.25;;
41221;SDS011;26952;42.884;23.918;2022-11-21T14:10:56;6.20;;;5.90;;
41221;SDS011;26952;42.884;23.918;2022-11-21T14:18:34;7.20;;;6.90;;
41221;SDS011;26952;42.884;23.918;2022-11-21T14:21:03;7.82;;;7.43;;
41221;SDS011;26952;42.884;23.918;2022-11-21T14:23:33;8.43;;;8.02;;
41221;SDS011;26952;42.884;23.918;2022-11-21T14:26:10;9.80;;;9.30;;
41221;SDS011;26952;42.884;23.918;2022-11-21T14:28:42;10.80;;;10.30;;
41221;SDS011;26952;42.884;23.918;2022-11-21T14:31:09;9.43;;;8.75;;
41221;SDS011;26952;42.884;23.918;2022-11-21T14:33:37;8.23;;;7.82;;
41221;SDS011;26952;42.884;23.918;2022-11-21T14:38:51;8.07;;;7.60;;
41221;SDS011;26952;42.884;23.918;2022-11-21T14:49:15;11.75;;;11.20;;
41221;SDS011;26952;42.884;23.918;2022-11-21T14:54:54;8.15;;;7.43;;
41221;SDS011;26952;42.884;23.918;2022-11-21T14:57:27;9.02;;;8.45;;
41221;SDS011;26952;42.884;23.918;2022-11-21T14:59:58;7.80;;;7.45;;
41221;SDS011;26952;42.884;23.918;2022-11-21T15:02:28;7.47;;;7.18;;
41221;SDS011;26952;42.884;23.918;2022-11-21T15:05:01;9.02;;;8.48;;
41221;SDS011;26952;42.884;23.918;2022-11-21T15:07:40;10.75;;;10.18;;
41221;SDS011;26952;42.884;23.918;2022-11-21T15:10:12;11.38;;;10.88;;
41221;SDS011;26952;42.884;23.918;2022-11-21T15:15:29;13.55;;;12.82;;
41221;SDS011;26952;42.884;23.918;2022-11-21T15:18:28;15.63;;;14.63;;
41221;SDS011;26952;42.884;23.918;2022-11-21T15:20:58;13.40;;;12.60;;
41221;SDS011;26952;42.884;23.918;2022-11-21T15:23:28;17.00;;;16.00;;
41221;SDS011;26952;42.884;23.918;2022-11-21T15:25:56;16.38;;;15.48;;
41221;SDS011;26952;42.884;23.918;2022-11-21T15:28:22;12.73;;;11.98;;
41221;SDS011;26952;42.884;23.918;2022-11-21T15:31:12;13.15;;;12.38;;
41221;SDS011;26952;42.884;23.918;2022-11-21T15:34:03;11.15;;;10.38;;
41221;SDS011;26952;42.884;23.918;2022-11-21T15:36:31;10.93;;;10.25;;
41221;SDS011;26952;42.884;23.918;2022-11-21T15:41:28;6.97;;;6.43;;
41221;SDS011;26952;42.884;23.918;2022-11-21T15:43:54;6.60;;;6.20;;
41221;SDS011;26952;42.884;23.918;2022-11-21T15:51:15;11.60;;;10.50;;
41221;SDS011;26952;42.884;23.918;2022-11-21T15:53:43;8.68;;;7.95;;
41221;SDS011;26952;42.884;23.918;2022-11-21T15:56:09;10.95;;;10.15;;
41221;SDS011;26952;42.884;23.918;2022-11-21T15:58:40;11.63;;;10.52;;
41221;SDS011;26952;42.884;23.918;2022-11-21T16:01:17;10.32;;;9.27;;
41221;SDS011;26952;42.884;23.918;2022-11-21T16:03:47;9.90;;;8.90;;
41221;SDS011;26952;42.884;23.918;2022-11-21T16:06:15;11.35;;;10.45;;
41221;SDS011;26952;42.884;23.918;2022-11-21T16:08:43;9.27;;;8.48;;
41221;SDS011;26952;42.884;23.918;2022-11-21T16:11:12;10.13;;;9.32;;
41221;SDS011;26952;42.884;23.918;2022-11-21T16:13:41;9.65;;;8.95;;
41221;SDS011;26952;42.884;23.918;2022-11-21T16:16:10;8.27;;;7.65;;
41221;SDS011;26952;42.884;23.918;2022-11-21T16:18:36;10.38;;;9.68;;
41221;SDS011;26952;42.884;23.918;2022-11-21T16:21:03;9.18;;;8.35;;
41221;SDS011;26952;42.884;23.918;2022-11-21T16:23:34;7.60;;;6.97;;
41221;SDS011;26952;42.884;23.918;2022-11-21T16:25:59;9.35;;;7.55;;
41221;SDS011;26952;42.884;23.918;2022-11-21T16:28:26;15.35;;;14.35;;
41221;SDS011;26952;42.884;23.918;2022-11-21T16:30:53;18.33;;;17.17;;
41221;SDS011;26952;42.884;23.918;2022-11-21T16:33:21;19.42;;;18.25;;
41221;SDS011;26952;42.884;23.918;2022-11-21T16:35:48;25.38;;;23.90;;
41221;SDS011;26952;42.884;23.918;2022-11-21T16:38:28;19.60;;;18.30;;
41221;SDS011;26952;42.884;23.918;2022-11-21T16:40:56;10.82;;;9.90;;
41221;SDS011;26952;42.884;23.918;2022-11-21T16:43:24;10.10;;;9.40;;
41221;SDS011;26952;42.884;23.918;2022-11-21T16:45:51;8.80;;;8.02;;
41221;SDS011;26952;42.884;23.918;2022-11-21T16:48:21;7.38;;;6.97;;
41221;SDS011;26952;42.884;23.918;2022-11-21T16:50:48;8.52;;;7.93;;
41221;SDS011;26952;42.884;23.918;2022-11-21T16:53:15;11.95;;;11.30;;
41221;SDS011;26952;42.884;23.918;2022-11-21T16:55:41;12.98;;;12.18;;
41221;SDS011;26952;42.884;23.918;2022-11-21T16:58:07;14.23;;;13.50;;
41221;SDS011;26952;42.884;23.918;2022-11-21T17:00:33;15.82;;;15.02;;
41221;SDS011;26952;42.884;23.918;2022-11-21T17:02:59;15.60;;;14.80;;
41221;SDS011;26952;42.884;23.918;2022-11-21T17:05:26;12.90;;;12.10;;
41221;SDS011;26952;42.884;23.918;2022-11-21T17:07:52;13.75;;;12.95;;